MET'MAP v2.0
soon released !

Expected late october,
this new version will be
more efficient, smarter,
and hosted on a brand new
server x3 powerfull...
...and still free !


Not compatible ?
Try the mobile version !

LOG IN : | Subscribe | Disclaimer | Who is Orbifly ? |
ICAO code :

TAF - EHEH Eindhoven - 26 Feb 2020 18:40 UTC
Data Sources :     NOAA   


- Airport Elevation : 74 ft
- IATA code : EIN
- No reported NOTAMs.


EHEH - Eindhoven

Latest METAR recorded : 2015/08/11 08:04 EHEH 110804Z AUTO 24003KT 9999 FEW013 BKN016 BKN210 21/17 Q1018 WHT VRB03KT 9999 BKN011 BECMG FEW025
TAF TAF EHEH
Valid from the 26 at 12:00 until the 27 at 18:00 UTC


261137Z 2612/2718 28005KT 9999 SCT017 BKN040
TEMPO 2612/2615 4500 SHRA FEW008 SCT018CB BKN020
PROB40
TEMPO 2612/2615 28015G25KT 3000 SHRAGS TSRAGS SCT008 SCT015CB BKN020
PROB30
TEMPO 2615/2621 4800 SHRA FEW012 SCT020CB BKN025
BECMG 2618/2621 23007KT
TEMPO 2621/2701 4800 SHRA SCT012 SCT020CB BKN025
PROB40
TEMPO 2621/2701 2000 SHRA SHRASN FEW005 SCT010 BKN018CB
BECMG 2708/2711 3000 RASN BKN006 OVC015
TEMPO 2707/2718 1500 SNRA SCT002 OVC008
BECMG 2710/2712 12005KT
BECMG 2714/2716 29008KT

Source NOAA


MET'MAP, your aeronautical weather chart ! - Copyright ORBIFLY December 2007

Programming & Development : Alexandra Zaïnal
Co-Developer : Marc-Olivier Méhu
Technical & hardware support : Manuel Goepfert
Concept & Financing : Baudouin d'Aumeries